Карточка аэропорта UNAA

Внимание!
Информация на этой странице в стадии наполнения.
Если вы не увидели какой-то информации, или заметили неточность - пожалуйста сообщите нам!
Спасибо!
Команда XR-STAFF
Название аэропортаАбакан
Название аэропорта (англ.)Abakan
Превышение830 ft. (253 m.)
Координаты53°44.4', 91°23.118'
Высота перехода1400m
Эшелон переходаQFE>=724mm:FL070; QFE<724:FL080
Коды ответчика5430-5437
Зона ОрВДКрасноярск РПИ (UNKL)
Данные METARUNAA 232000Z 00000MPS 9000 NSC 09/09 Q1025 R02/290155 NOSIG RMK QFE746
Проноз погоды (TAF)UNAA 231700Z 2318/2418 03002MPS 9999 SCT040 TEMPO 2318/2403 3200 BR TEMPO 2403/2415 07007G12MPS
NOTAMshow/hide NOTAM
AWOS   TABLE

Информация о ВПП

ВПП Длина ВПП (м.) Покрытие Курс ВПП Частота ILS
02R3250Асфальтобетон21110.3
20L3250Асфальтобетон201109.9

Диспетчерские позиции

Позывной Наименование органа УВД Частота
UNAA_R_APPАбакан-Круг134.3
UNAA_TWRАбакан-Старт122.0



Спутниковое изображение